sensor_id;sensor_type;location;lat;lon;timestamp;pressure;altitude;pressure_sealevel;temperature;humidity
60642;BME280;46837;52.446;-1.930;2022-12-10T00:00:09;99482.50;;;-0.01;82.59
60642;BME280;46837;52.446;-1.930;2022-12-10T00:01:13;99483.76;;;-0.02;82.62
60642;BME280;46837;52.446;-1.930;2022-12-10T00:02:09;99483.76;;;-0.02;82.71
60642;BME280;46837;52.446;-1.930;2022-12-10T00:03:09;99482.23;;;-0.02;82.68
60642;BME280;46837;52.446;-1.930;2022-12-10T00:04:09;99483.87;;;-0.01;82.75
60642;BME280;46837;52.446;-1.930;2022-12-10T00:05:09;99485.37;;;0.01;82.81
60642;BME280;46837;52.446;-1.930;2022-12-10T00:06:11;99481.18;;;0.01;82.64
60642;BME280;46837;52.446;-1.930;2022-12-10T00:07:09;99479.59;;;0.00;82.57
60642;BME280;46837;52.446;-1.930;2022-12-10T00:08:09;99483.29;;;0.00;82.48
60642;BME280;46837;52.446;-1.930;2022-12-10T00:09:11;99479.65;;;0.01;82.51
60642;BME280;46837;52.446;-1.930;2022-12-10T00:10:09;99481.41;;;0.02;82.49
60642;BME280;46837;52.446;-1.930;2022-12-10T00:11:11;99476.78;;;0.01;82.36
60642;BME280;46837;52.446;-1.930;2022-12-10T00:12:09;99476.23;;;0.01;82.46
60642;BME280;46837;52.446;-1.930;2022-12-10T00:13:09;99476.50;;;-0.01;82.30
60642;BME280;46837;52.446;-1.930;2022-12-10T00:14:09;99477.21;;;-0.03;82.38
60642;BME280;46837;52.446;-1.930;2022-12-10T00:15:09;99476.37;;;-0.06;82.64
60642;BME280;46837;52.446;-1.930;2022-12-10T00:16:10;99478.35;;;-0.09;82.92
60642;BME280;46837;52.446;-1.930;2022-12-10T00:17:09;99473.55;;;-0.09;83.07
60642;BME280;46837;52.446;-1.930;2022-12-10T00:18:09;99470.89;;;-0.08;82.98
60642;BME280;46837;52.446;-1.930;2022-12-10T00:19:09;99472.36;;;-0.07;82.93
60642;BME280;46837;52.446;-1.930;2022-12-10T00:20:09;99470.33;;;-0.07;82.89
60642;BME280;46837;52.446;-1.930;2022-12-10T00:21:11;99473.72;;;-0.07;82.80
60642;BME280;46837;52.446;-1.930;2022-12-10T00:22:09;99471.44;;;-0.08;82.65
60642;BME280;46837;52.446;-1.930;2022-12-10T00:23:09;99473.91;;;-0.09;82.55
60642;BME280;46837;52.446;-1.930;2022-12-10T00:24:09;99470.71;;;-0.10;82.61
60642;BME280;46837;52.446;-1.930;2022-12-10T00:25:09;99475.42;;;-0.10;82.65
60642;BME280;46837;52.446;-1.930;2022-12-10T00:26:15;99471.98;;;-0.09;82.69
60642;BME280;46837;52.446;-1.930;2022-12-10T00:27:09;99471.98;;;-0.09;82.69
60642;BME280;46837;52.446;-1.930;2022-12-10T00:28:09;99475.45;;;-0.09;82.64
60642;BME280;46837;52.446;-1.930;2022-12-10T00:29:10;99472.23;;;-0.09;82.57
60642;BME280;46837;52.446;-1.930;2022-12-10T00:30:09;99474.94;;;-0.10;82.51
60642;BME280;46837;52.446;-1.930;2022-12-10T00:31:10;99475.05;;;-0.12;82.54
60642;BME280;46837;52.446;-1.930;2022-12-10T00:32:09;99476.71;;;-0.13;82.62
60642;BME280;46837;52.446;-1.930;2022-12-10T00:33:09;99475.71;;;-0.13;82.74
60642;BME280;46837;52.446;-1.930;2022-12-10T00:34:09;99475.36;;;-0.17;82.88
60642;BME280;46837;52.446;-1.930;2022-12-10T00:35:09;99478.44;;;-0.15;82.91
60642;BME280;46837;52.446;-1.930;2022-12-10T00:36:14;99477.57;;;-0.14;82.78
60642;BME280;46837;52.446;-1.930;2022-12-10T00:37:09;99478.37;;;-0.14;82.78
60642;BME280;46837;52.446;-1.930;2022-12-10T00:38:09;99475.84;;;-0.14;82.77
60642;BME280;46837;52.446;-1.930;2022-12-10T00:39:09;99478.93;;;-0.13;82.78
60642;BME280;46837;52.446;-1.930;2022-12-10T00:40:09;99478.64;;;-0.12;82.67
60642;BME280;46837;52.446;-1.930;2022-12-10T00:41:09;99481.93;;;-0.12;82.56
60642;BME280;46837;52.446;-1.930;2022-12-10T00:42:09;99478.40;;;-0.13;82.46
60642;BME280;46837;52.446;-1.930;2022-12-10T00:43:09;99482.59;;;-0.13;82.56
60642;BME280;46837;52.446;-1.930;2022-12-10T00:44:09;99482.28;;;-0.14;82.45
60642;BME280;46837;52.446;-1.930;2022-12-10T00:45:09;99479.27;;;-0.14;82.48
60642;BME280;46837;52.446;-1.930;2022-12-10T00:46:09;99478.27;;;-0.15;82.50
60642;BME280;46837;52.446;-1.930;2022-12-10T00:47:09;99481.07;;;-0.16;82.34
60642;BME280;46837;52.446;-1.930;2022-12-10T00:48:09;99476.05;;;-0.17;82.43
60642;BME280;46837;52.446;-1.930;2022-12-10T00:49:09;99479.95;;;-0.19;82.38
60642;BME280;46837;52.446;-1.930;2022-12-10T00:50:09;99482.44;;;-0.22;82.55
60642;BME280;46837;52.446;-1.930;2022-12-10T00:51:13;99485.11;;;-0.22;82.65
60642;BME280;46837;52.446;-1.930;2022-12-10T00:52:09;99487.37;;;-0.23;82.62
60642;BME280;46837;52.446;-1.930;2022-12-10T00:53:09;99488.59;;;-0.24;82.53
60642;BME280;46837;52.446;-1.930;2022-12-10T00:54:09;99485.43;;;-0.26;82.43
60642;BME280;46837;52.446;-1.930;2022-12-10T00:55:09;99481.31;;;-0.28;82.42
60642;BME280;46837;52.446;-1.930;2022-12-10T00:56:10;99481.20;;;-0.28;82.43
60642;BME280;46837;52.446;-1.930;2022-12-10T00:57:09;99481.68;;;-0.28;82.42
60642;BME280;46837;52.446;-1.930;2022-12-10T00:58:09;99478.39;;;-0.29;82.39
60642;BME280;46837;52.446;-1.930;2022-12-10T00:59:09;99478.27;;;-0.29;82.40
60642;BME280;46837;52.446;-1.930;2022-12-10T01:00:09;99480.54;;;-0.30;82.39
60642;BME280;46837;52.446;-1.930;2022-12-10T01:01:16;99481.62;;;-0.30;82.39
60642;BME280;46837;52.446;-1.930;2022-12-10T01:02:09;99481.55;;;-0.30;82.35
60642;BME280;46837;52.446;-1.930;2022-12-10T01:03:09;99482.48;;;-0.31;82.46
60642;BME280;46837;52.446;-1.930;2022-12-10T01:04:13;99480.44;;;-0.34;82.55
60642;BME280;46837;52.446;-1.930;2022-12-10T01:05:09;99476.75;;;-0.39;82.90
60642;BME280;46837;52.446;-1.930;2022-12-10T01:07:09;99479.18;;;-0.40;83.07
60642;BME280;46837;52.446;-1.930;2022-12-10T01:08:09;99478.02;;;-0.41;83.17
60642;BME280;46837;52.446;-1.930;2022-12-10T01:09:11;99479.21;;;-0.42;83.18
60642;BME280;46837;52.446;-1.930;2022-12-10T01:10:09;99481.81;;;-0.41;83.18
60642;BME280;46837;52.446;-1.930;2022-12-10T01:11:09;99480.73;;;-0.41;83.22
60642;BME280;46837;52.446;-1.930;2022-12-10T01:12:09;99480.34;;;-0.42;83.13
60642;BME280;46837;52.446;-1.930;2022-12-10T01:13:09;99481.45;;;-0.41;83.04
60642;BME280;46837;52.446;-1.930;2022-12-10T01:14:11;99482.98;;;-0.41;83.08
60642;BME280;46837;52.446;-1.930;2022-12-10T01:15:09;99478.88;;;-0.42;83.08
60642;BME280;46837;52.446;-1.930;2022-12-10T01:16:09;99480.61;;;-0.42;82.97
60642;BME280;46837;52.446;-1.930;2022-12-10T01:17:09;99482.13;;;-0.41;82.85
60642;BME280;46837;52.446;-1.930;2022-12-10T01:18:09;99484.74;;;-0.40;82.79
60642;BME280;46837;52.446;-1.930;2022-12-10T01:19:09;99486.44;;;-0.41;82.89
60642;BME280;46837;52.446;-1.930;2022-12-10T01:20:09;99487.79;;;-0.39;82.92
60642;BME280;46837;52.446;-1.930;2022-12-10T01:21:10;99488.49;;;-0.41;82.72
60642;BME280;46837;52.446;-1.930;2022-12-10T01:22:09;99489.25;;;-0.40;82.74
60642;BME280;46837;52.446;-1.930;2022-12-10T01:23:09;99487.04;;;-0.41;82.67
60642;BME280;46837;52.446;-1.930;2022-12-10T01:24:09;99490.21;;;-0.39;82.75
60642;BME280;46837;52.446;-1.930;2022-12-10T01:25:09;99490.79;;;-0.41;82.60
60642;BME280;46837;52.446;-1.930;2022-12-10T01:26:12;99489.05;;;-0.40;82.67
60642;BME280;46837;52.446;-1.930;2022-12-10T01:27:09;99492.53;;;-0.42;82.60
60642;BME280;46837;52.446;-1.930;2022-12-10T01:28:09;99490.10;;;-0.41;82.68
60642;BME280;46837;52.446;-1.930;2022-12-10T01:29:09;99490.21;;;-0.42;82.48
60642;BME280;46837;52.446;-1.930;2022-12-10T01:30:09;99490.65;;;-0.42;82.51
60642;BME280;46837;52.446;-1.930;2022-12-10T01:32:09;99491.79;;;-0.40;82.60
60642;BME280;46837;52.446;-1.930;2022-12-10T01:33:09;99490.29;;;-0.40;82.61
60642;BME280;46837;52.446;-1.930;2022-12-10T01:34:10;99490.27;;;-0.39;82.63
60642;BME280;46837;52.446;-1.930;2022-12-10T01:35:09;99491.13;;;-0.39;82.55
60642;BME280;46837;52.446;-1.930;2022-12-10T01:36:12;99492.85;;;-0.39;82.45
60642;BME280;46837;52.446;-1.930;2022-12-10T01:37:09;99495.72;;;-0.40;82.36
60642;BME280;46837;52.446;-1.930;2022-12-10T01:38:09;99494.19;;;-0.39;82.35
60642;BME280;46837;52.446;-1.930;2022-12-10T01:39:10;99495.66;;;-0.38;82.25
60642;BME280;46837;52.446;-1.930;2022-12-10T01:40:09;99495.29;;;-0.40;82.12
60642;BME280;46837;52.446;-1.930;2022-12-10T01:41:13;99490.71;;;-0.41;82.17
60642;BME280;46837;52.446;-1.930;2022-12-10T01:42:12;99492.07;;;-0.44;82.21
60642;BME280;46837;52.446;-1.930;2022-12-10T01:43:13;99493.29;;;-0.44;82.39
60642;BME280;46837;52.446;-1.930;2022-12-10T01:45:11;99494.65;;;-0.50;82.66
60642;BME280;46837;52.446;-1.930;2022-12-10T01:46:09;99491.85;;;-0.52;82.80
60642;BME280;46837;52.446;-1.930;2022-12-10T01:47:09;99491.13;;;-0.52;82.86
60642;BME280;46837;52.446;-1.930;2022-12-10T01:48:09;99488.95;;;-0.52;82.88
60642;BME280;46837;52.446;-1.930;2022-12-10T01:49:11;99490.71;;;-0.51;82.89
60642;BME280;46837;52.446;-1.930;2022-12-10T01:50:09;99492.00;;;-0.51;82.90
60642;BME280;46837;52.446;-1.930;2022-12-10T01:51:09;99492.96;;;-0.50;82.82
60642;BME280;46837;52.446;-1.930;2022-12-10T01:52:10;99491.73;;;-0.49;82.67
60642;BME280;46837;52.446;-1.930;2022-12-10T01:53:09;99491.94;;;-0.49;82.62
60642;BME280;46837;52.446;-1.930;2022-12-10T01:54:11;99495.78;;;-0.50;82.69
60642;BME280;46837;52.446;-1.930;2022-12-10T01:55:35;99490.71;;;-0.51;82.81
60642;BME280;46837;52.446;-1.930;2022-12-10T01:56:09;99491.79;;;-0.49;82.74
60642;BME280;46837;52.446;-1.930;2022-12-10T01:57:16;99489.39;;;-0.51;82.69
60642;BME280;46837;52.446;-1.930;2022-12-10T01:58:09;99492.43;;;-0.49;82.85
60642;BME280;46837;52.446;-1.930;2022-12-10T01:59:09;99491.59;;;-0.50;82.65
60642;BME280;46837;52.446;-1.930;2022-12-10T02:00:09;99490.30;;;-0.53;82.64
60642;BME280;46837;52.446;-1.930;2022-12-10T02:01:11;99491.12;;;-0.54;82.76
60642;BME280;46837;52.446;-1.930;2022-12-10T02:03:14;99488.59;;;-0.54;82.73
60642;BME280;46837;52.446;-1.930;2022-12-10T02:04:23;99488.79;;;-0.55;82.78
60642;BME280;46837;52.446;-1.930;2022-12-10T02:06:19;99489.16;;;-0.55;82.62
60642;BME280;46837;52.446;-1.930;2022-12-10T02:09:18;99488.07;;;-0.55;82.78
60642;BME280;46837;52.446;-1.930;2022-12-10T02:10:19;99487.06;;;-0.58;82.83
60642;BME280;46837;52.446;-1.930;2022-12-10T02:11:58;99489.12;;;-0.59;83.05
60642;BME280;46837;52.446;-1.930;2022-12-10T02:12:16;99488.20;;;-0.59;83.09
60642;BME280;46837;52.446;-1.930;2022-12-10T02:13:16;99488.55;;;-0.58;83.11
60642;BME280;46837;52.446;-1.930;2022-12-10T02:14:17;99492.82;;;-0.59;83.01
60642;BME280;46837;52.446;-1.930;2022-12-10T02:15:14;99491.40;;;-0.60;82.99
60642;BME280;46837;52.446;-1.930;2022-12-10T02:16:16;99491.41;;;-0.58;82.98
60642;BME280;46837;52.446;-1.930;2022-12-10T02:17:19;99492.98;;;-0.58;82.82
60642;BME280;46837;52.446;-1.930;2022-12-10T02:18:12;99492.96;;;-0.57;82.73
60642;BME280;46837;52.446;-1.930;2022-12-10T02:21:12;99490.32;;;-0.58;82.53
60642;BME280;46837;52.446;-1.930;2022-12-10T02:22:09;99491.57;;;-0.58;82.52
60642;BME280;46837;52.446;-1.930;2022-12-10T02:23:14;99487.84;;;-0.59;82.56
60642;BME280;46837;52.446;-1.930;2022-12-10T02:24:11;99489.46;;;-0.60;82.44
60642;BME280;46837;52.446;-1.930;2022-12-10T02:25:09;99487.84;;;-0.63;82.45
60642;BME280;46837;52.446;-1.930;2022-12-10T02:26:15;99492.14;;;-0.69;82.51
60642;BME280;46837;52.446;-1.930;2022-12-10T02:29:16;99493.20;;;-0.69;82.86
60642;BME280;46837;52.446;-1.930;2022-12-10T02:30:09;99490.98;;;-0.69;82.84
60642;BME280;46837;52.446;-1.930;2022-12-10T02:31:09;99491.78;;;-0.72;82.89
60642;BME280;46837;52.446;-1.930;2022-12-10T02:33:09;99490.29;;;-0.71;82.95
60642;BME280;46837;52.446;-1.930;2022-12-10T02:34:09;99493.55;;;-0.72;83.08
60642;BME280;46837;52.446;-1.930;2022-12-10T02:35:14;99493.95;;;-0.72;83.17
60642;BME280;46837;52.446;-1.930;2022-12-10T02:36:09;99496.41;;;-0.72;83.11
60642;BME280;46837;52.446;-1.930;2022-12-10T02:37:18;99496.69;;;-0.75;83.29
60642;BME280;46837;52.446;-1.930;2022-12-10T02:38:14;99498.86;;;-0.75;83.42
60642;BME280;46837;52.446;-1.930;2022-12-10T02:39:10;99492.49;;;-0.74;83.41
60642;BME280;46837;52.446;-1.930;2022-12-10T02:40:13;99497.05;;;-0.72;83.34
60642;BME280;46837;52.446;-1.930;2022-12-10T02:41:14;99495.96;;;-0.72;83.22
60642;BME280;46837;52.446;-1.930;2022-12-10T02:42:09;99495.55;;;-0.71;83.12
60642;BME280;46837;52.446;-1.930;2022-12-10T02:43:09;99497.13;;;-0.72;83.07
60642;BME280;46837;52.446;-1.930;2022-12-10T02:44:10;99490.70;;;-0.73;83.06
60642;BME280;46837;52.446;-1.930;2022-12-10T02:45:09;99491.02;;;-0.73;83.02
60642;BME280;46837;52.446;-1.930;2022-12-10T02:46:09;99488.54;;;-0.73;83.04
60642;BME280;46837;52.446;-1.930;2022-12-10T02:47:09;99487.36;;;-0.72;83.15
60642;BME280;46837;52.446;-1.930;2022-12-10T02:48:09;99486.46;;;-0.72;83.05
60642;BME280;46837;52.446;-1.930;2022-12-10T02:49:09;99484.95;;;-0.73;83.03
60642;BME280;46837;52.446;-1.930;2022-12-10T02:50:09;99487.68;;;-0.72;83.05
60642;BME280;46837;52.446;-1.930;2022-12-10T02:51:09;99487.57;;;-0.73;82.82
60642;BME280;46837;52.446;-1.930;2022-12-10T02:52:09;99492.04;;;-0.73;82.93
60642;BME280;46837;52.446;-1.930;2022-12-10T02:53:09;99489.45;;;-0.75;82.87
60642;BME280;46837;52.446;-1.930;2022-12-10T02:55:11;99484.79;;;-0.80;82.96
60642;BME280;46837;52.446;-1.930;2022-12-10T02:56:20;99485.03;;;-0.83;83.21
60642;BME280;46837;52.446;-1.930;2022-12-10T02:58:15;99486.23;;;-0.82;83.10
60642;BME280;46837;52.446;-1.930;2022-12-10T02:59:17;99485.10;;;-0.82;83.18
60642;BME280;46837;52.446;-1.930;2022-12-10T03:01:19;99482.34;;;-0.83;83.01
60642;BME280;46837;52.446;-1.930;2022-12-10T03:02:13;99482.53;;;-0.82;83.12
60642;BME280;46837;52.446;-1.930;2022-12-10T03:05:18;99486.71;;;-0.82;82.92
60642;BME280;46837;52.446;-1.930;2022-12-10T03:07:12;99483.10;;;-0.83;82.91
60642;BME280;46837;52.446;-1.930;2022-12-10T03:11:15;99486.72;;;-0.79;82.94
60642;BME280;46837;52.446;-1.930;2022-12-10T03:13:10;99481.28;;;-0.78;82.94
60642;BME280;46837;52.446;-1.930;2022-12-10T03:14:13;99482.09;;;-0.76;82.91
60642;BME280;46837;52.446;-1.930;2022-12-10T03:15:10;99482.52;;;-0.75;82.78
60642;BME280;46837;52.446;-1.930;2022-12-10T03:16:09;99480.53;;;-0.77;82.74
60642;BME280;46837;52.446;-1.930;2022-12-10T03:17:09;99479.00;;;-0.77;82.71
60642;BME280;46837;52.446;-1.930;2022-12-10T03:18:09;99477.42;;;-0.75;82.69
60642;BME280;46837;52.446;-1.930;2022-12-10T03:19:12;99478.14;;;-0.76;82.56
60642;BME280;46837;52.446;-1.930;2022-12-10T03:20:10;99476.49;;;-0.76;82.56
60642;BME280;46837;52.446;-1.930;2022-12-10T03:21:09;99475.48;;;-0.75;82.51
60642;BME280;46837;52.446;-1.930;2022-12-10T03:22:09;99474.61;;;-0.76;82.39
60642;BME280;46837;52.446;-1.930;2022-12-10T03:23:10;99475.20;;;-0.78;82.35
60642;BME280;46837;52.446;-1.930;2022-12-10T03:24:09;99478.10;;;-0.79;82.12
60642;BME280;46837;52.446;-1.930;2022-12-10T03:25:09;99475.79;;;-0.80;82.39
60642;BME280;46837;52.446;-1.930;2022-12-10T03:26:09;99479.35;;;-0.78;82.51
60642;BME280;46837;52.446;-1.930;2022-12-10T03:27:09;99477.53;;;-0.81;82.52
60642;BME280;46837;52.446;-1.930;2022-12-10T03:28:09;99474.37;;;-0.79;82.65
60642;BME280;46837;52.446;-1.930;2022-12-10T03:29:15;99474.08;;;-0.79;82.55
60642;BME280;46837;52.446;-1.930;2022-12-10T03:30:09;99472.61;;;-0.80;82.71
60642;BME280;46837;52.446;-1.930;2022-12-10T03:31:10;99474.76;;;-0.79;82.91
60642;BME280;46837;52.446;-1.930;2022-12-10T03:32:09;99473.39;;;-0.78;82.81
60642;BME280;46837;52.446;-1.930;2022-12-10T03:33:09;99476.14;;;-0.76;82.74
60642;BME280;46837;52.446;-1.930;2022-12-10T03:34:09;99478.62;;;-0.75;82.58
60642;BME280;46837;52.446;-1.930;2022-12-10T03:35:09;99474.07;;;-0.75;82.46
60642;BME280;46837;52.446;-1.930;2022-12-10T03:36:09;99475.24;;;-0.75;82.43
60642;BME280;46837;52.446;-1.930;2022-12-10T03:37:09;99473.11;;;-0.75;82.48
60642;BME280;46837;52.446;-1.930;2022-12-10T03:38:09;99471.36;;;-0.74;82.50
60642;BME280;46837;52.446;-1.930;2022-12-10T03:39:09;99469.72;;;-0.75;82.46
60642;BME280;46837;52.446;-1.930;2022-12-10T03:40:09;99466.26;;;-0.74;82.46
60642;BME280;46837;52.446;-1.930;2022-12-10T03:41:09;99471.55;;;-0.76;82.43
60642;BME280;46837;52.446;-1.930;2022-12-10T03:42:09;99472.46;;;-0.75;82.49
60642;BME280;46837;52.446;-1.930;2022-12-10T03:43:11;99470.91;;;-0.76;82.39
60642;BME280;46837;52.446;-1.930;2022-12-10T03:44:09;99473.97;;;-0.77;82.27
60642;BME280;46837;52.446;-1.930;2022-12-10T03:45:09;99471.80;;;-0.76;82.29
60642;BME280;46837;52.446;-1.930;2022-12-10T03:46:09;99470.54;;;-0.79;82.27
60642;BME280;46837;52.446;-1.930;2022-12-10T03:47:13;99471.02;;;-0.79;82.35
60642;BME280;46837;52.446;-1.930;2022-12-10T03:48:09;99470.31;;;-0.80;82.24
60642;BME280;46837;52.446;-1.930;2022-12-10T03:49:09;99470.07;;;-0.81;82.30
60642;BME280;46837;52.446;-1.930;2022-12-10T03:50:09;99473.75;;;-0.82;82.25
60642;BME280;46837;52.446;-1.930;2022-12-10T03:51:09;99468.46;;;-0.81;82.36
60642;BME280;46837;52.446;-1.930;2022-12-10T03:52:09;99473.79;;;-0.81;82.32
60642;BME280;46837;52.446;-1.930;2022-12-10T03:53:09;99471.64;;;-0.80;82.40
60642;BME280;46837;52.446;-1.930;2022-12-10T03:54:09;99468.91;;;-0.80;82.37
60642;BME280;46837;52.446;-1.930;2022-12-10T03:55:09;99470.62;;;-0.79;82.44
60642;BME280;46837;52.446;-1.930;2022-12-10T03:56:09;99466.97;;;-0.80;82.32
60642;BME280;46837;52.446;-1.930;2022-12-10T03:57:09;99469.85;;;-0.81;82.30
60642;BME280;46837;52.446;-1.930;2022-12-10T03:58:09;99464.77;;;-0.81;82.40
60642;BME280;46837;52.446;-1.930;2022-12-10T03:59:09;99468.41;;;-0.79;82.47
60642;BME280;46837;52.446;-1.930;2022-12-10T04:00:09;99467.65;;;-0.80;82.37
60642;BME280;46837;52.446;-1.930;2022-12-10T04:01:09;99468.50;;;-0.83;82.18
60642;BME280;46837;52.446;-1.930;2022-12-10T04:02:09;99465.79;;;-0.85;82.09
60642;BME280;46837;52.446;-1.930;2022-12-10T04:03:09;99466.49;;;-0.87;82.12
60642;BME280;46837;52.446;-1.930;2022-12-10T04:04:09;99468.74;;;-0.87;82.06
60642;BME280;46837;52.446;-1.930;2022-12-10T04:05:09;99468.62;;;-0.87;82.04
60642;BME280;46837;52.446;-1.930;2022-12-10T04:06:10;99465.12;;;-0.87;82.03
60642;BME280;46837;52.446;-1.930;2022-12-10T04:07:09;99466.05;;;-0.87;82.05
60642;BME280;46837;52.446;-1.930;2022-12-10T04:08:09;99468.62;;;-0.87;82.03
60642;BME280;46837;52.446;-1.930;2022-12-10T04:09:10;99470.75;;;-0.87;82.00
60642;BME280;46837;52.446;-1.930;2022-12-10T04:10:09;99465.32;;;-0.87;82.01
60642;BME280;46837;52.446;-1.930;2022-12-10T04:11:09;99466.24;;;-0.89;81.82
60642;BME280;46837;52.446;-1.930;2022-12-10T04:12:09;99466.43;;;-0.91;81.55
60642;BME280;46837;52.446;-1.930;2022-12-10T04:13:13;99464.59;;;-0.93;81.58
60642;BME280;46837;52.446;-1.930;2022-12-10T04:14:13;99465.88;;;-0.96;81.51
60642;BME280;46837;52.446;-1.930;2022-12-10T04:15:13;99464.64;;;-0.97;81.54
60642;BME280;46837;52.446;-1.930;2022-12-10T04:16:13;99464.00;;;-0.97;81.66
60642;BME280;46837;52.446;-1.930;2022-12-10T04:17:09;99459.02;;;-0.99;81.56
60642;BME280;46837;52.446;-1.930;2022-12-10T04:18:09;99458.12;;;-1.01;81.42
60642;BME280;46837;52.446;-1.930;2022-12-10T04:19:10;99462.77;;;-1.02;81.49
60642;BME280;46837;52.446;-1.930;2022-12-10T04:20:09;99458.34;;;-1.02;81.61
60642;BME280;46837;52.446;-1.930;2022-12-10T04:21:13;99456.34;;;-1.03;81.58
60642;BME280;46837;52.446;-1.930;2022-12-10T04:22:13;99455.82;;;-1.04;81.52
60642;BME280;46837;52.446;-1.930;2022-12-10T04:23:13;99454.52;;;-1.03;81.68
60642;BME280;46837;52.446;-1.930;2022-12-10T04:24:13;99456.98;;;-1.03;81.70
60642;BME280;46837;52.446;-1.930;2022-12-10T04:25:13;99453.08;;;-1.03;81.77
60642;BME280;46837;52.446;-1.930;2022-12-10T04:26:13;99454.13;;;-1.03;81.75
60642;BME280;46837;52.446;-1.930;2022-12-10T04:28:09;99449.83;;;-1.07;81.50
60642;BME280;46837;52.446;-1.930;2022-12-10T04:29:09;99451.81;;;-1.08;81.52
60642;BME280;46837;52.446;-1.930;2022-12-10T04:30:09;99458.27;;;-1.07;81.66
60642;BME280;46837;52.446;-1.930;2022-12-10T04:31:09;99456.58;;;-1.06;81.70
60642;BME280;46837;52.446;-1.930;2022-12-10T04:32:09;99458.10;;;-1.06;81.74
60642;BME280;46837;52.446;-1.930;2022-12-10T04:33:09;99458.83;;;-1.06;81.69
60642;BME280;46837;52.446;-1.930;2022-12-10T04:34:09;99460.86;;;-1.08;81.59
60642;BME280;46837;52.446;-1.930;2022-12-10T04:35:09;99462.20;;;-1.10;81.53
60642;BME280;46837;52.446;-1.930;2022-12-10T04:36:09;99462.21;;;-1.11;81.50
60642;BME280;46837;52.446;-1.930;2022-12-10T04:37:09;99463.98;;;-1.11;81.59
60642;BME280;46837;52.446;-1.930;2022-12-10T04:38:09;99465.63;;;-1.14;81.41
60642;BME280;46837;52.446;-1.930;2022-12-10T04:39:09;99466.79;;;-1.14;81.44
60642;BME280;46837;52.446;-1.930;2022-12-10T04:40:09;99469.04;;;-1.13;81.60
60642;BME280;46837;52.446;-1.930;2022-12-10T04:41:13;99472.81;;;-1.13;81.65
60642;BME280;46837;52.446;-1.930;2022-12-10T04:42:09;99472.13;;;-1.13;81.66
60642;BME280;46837;52.446;-1.930;2022-12-10T04:43:09;99473.99;;;-1.18;81.48
60642;BME280;46837;52.446;-1.930;2022-12-10T04:44:09;99472.69;;;-1.24;81.47
60642;BME280;46837;52.446;-1.930;2022-12-10T04:45:09;99471.80;;;-1.28;81.62
60642;BME280;46837;52.446;-1.930;2022-12-10T04:46:09;99470.27;;;-1.27;81.86
60642;BME280;46837;52.446;-1.930;2022-12-10T04:47:09;99473.22;;;-1.25;81.89
60642;BME280;46837;52.446;-1.930;2022-12-10T04:48:09;99474.98;;;-1.24;82.00
60642;BME280;46837;52.446;-1.930;2022-12-10T04:49:09;99475.15;;;-1.25;81.89
60642;BME280;46837;52.446;-1.930;2022-12-10T04:50:09;99474.70;;;-1.25;82.01
60642;BME280;46837;52.446;-1.930;2022-12-10T04:51:09;99476.19;;;-1.25;81.96
60642;BME280;46837;52.446;-1.930;2022-12-10T04:52:10;99475.78;;;-1.27;81.66
60642;BME280;46837;52.446;-1.930;2022-12-10T04:53:09;99471.72;;;-1.28;81.74
60642;BME280;46837;52.446;-1.930;2022-12-10T04:54:09;99474.48;;;-1.26;81.91
60642;BME280;46837;52.446;-1.930;2022-12-10T04:55:09;99475.46;;;-1.24;81.97
60642;BME280;46837;52.446;-1.930;2022-12-10T04:56:09;99474.13;;;-1.24;81.89
60642;BME280;46837;52.446;-1.930;2022-12-10T04:57:09;99473.49;;;-1.24;81.97
60642;BME280;46837;52.446;-1.930;2022-12-10T04:58:09;99476.16;;;-1.26;81.96
60642;BME280;46837;52.446;-1.930;2022-12-10T04:59:09;99474.19;;;-1.25;82.11
60642;BME280;46837;52.446;-1.930;2022-12-10T05:00:09;99473.78;;;-1.25;82.20
60642;BME280;46837;52.446;-1.930;2022-12-10T05:01:10;99476.47;;;-1.25;82.19
60642;BME280;46837;52.446;-1.930;2022-12-10T05:02:09;99470.45;;;-1.25;82.44
60642;BME280;46837;52.446;-1.930;2022-12-10T05:03:09;99476.26;;;-1.23;82.45
60642;BME280;46837;52.446;-1.930;2022-12-10T05:04:11;99477.77;;;-1.22;82.58
60642;BME280;46837;52.446;-1.930;2022-12-10T05:05:09;99479.90;;;-1.22;82.61
60642;BME280;46837;52.446;-1.930;2022-12-10T05:06:10;99481.53;;;-1.20;82.57
60642;BME280;46837;52.446;-1.930;2022-12-10T05:07:09;99481.53;;;-1.20;82.48
60642;BME280;46837;52.446;-1.930;2022-12-10T05:08:09;99479.42;;;-1.19;82.48
60642;BME280;46837;52.446;-1.930;2022-12-10T05:09:11;99478.09;;;-1.17;82.46
60642;BME280;46837;52.446;-1.930;2022-12-10T05:10:09;99481.38;;;-1.17;82.37
60642;BME280;46837;52.446;-1.930;2022-12-10T05:11:11;99482.03;;;-1.18;82.31
60642;BME280;46837;52.446;-1.930;2022-12-10T05:12:09;99481.02;;;-1.17;82.30
60642;BME280;46837;52.446;-1.930;2022-12-10T05:13:09;99474.66;;;-1.16;82.22
60642;BME280;46837;52.446;-1.930;2022-12-10T05:14:10;99475.41;;;-1.19;82.12
60642;BME280;46837;52.446;-1.930;2022-12-10T05:15:09;99475.81;;;-1.19;82.17
60642;BME280;46837;52.446;-1.930;2022-12-10T05:16:09;99477.35;;;-1.20;82.36
60642;BME280;46837;52.446;-1.930;2022-12-10T05:17:09;99477.92;;;-1.21;82.47
60642;BME280;46837;52.446;-1.930;2022-12-10T05:18:09;99475.63;;;-1.21;82.51
60642;BME280;46837;52.446;-1.930;2022-12-10T05:19:09;99473.30;;;-1.22;82.60
60642;BME280;46837;52.446;-1.930;2022-12-10T05:20:09;99473.66;;;-1.21;82.50
60642;BME280;46837;52.446;-1.930;2022-12-10T05:21:11;99470.45;;;-1.21;82.48
60642;BME280;46837;52.446;-1.930;2022-12-10T05:22:13;99474.57;;;-1.20;82.54
60642;BME280;46837;52.446;-1.930;2022-12-10T05:23:13;99472.50;;;-1.22;82.43
60642;BME280;46837;52.446;-1.930;2022-12-10T05:24:09;99473.36;;;-1.23;82.54
60642;BME280;46837;52.446;-1.930;2022-12-10T05:25:09;99473.41;;;-1.24;82.61
60642;BME280;46837;52.446;-1.930;2022-12-10T05:26:13;99472.09;;;-1.24;82.68
60642;BME280;46837;52.446;-1.930;2022-12-10T05:27:09;99468.33;;;-1.23;82.79
60642;BME280;46837;52.446;-1.930;2022-12-10T05:28:09;99469.41;;;-1.23;82.74
60642;BME280;46837;52.446;-1.930;2022-12-10T05:29:09;99470.74;;;-1.23;82.58
60642;BME280;46837;52.446;-1.930;2022-12-10T05:30:09;99472.47;;;-1.23;82.58
60642;BME280;46837;52.446;-1.930;2022-12-10T05:31:14;99473.46;;;-1.26;82.55
60642;BME280;46837;52.446;-1.930;2022-12-10T05:32:09;99465.47;;;-1.26;82.71
60642;BME280;46837;52.446;-1.930;2022-12-10T05:33:09;99465.31;;;-1.26;82.79
60642;BME280;46837;52.446;-1.930;2022-12-10T05:34:10;99461.80;;;-1.24;82.83
60642;BME280;46837;52.446;-1.930;2022-12-10T05:35:09;99462.34;;;-1.23;82.89
60642;BME280;46837;52.446;-1.930;2022-12-10T05:36:09;99464.17;;;-1.21;82.97